createdAt,value
2017-10-20T00:01:11.282Z,81.50
2017-10-20T00:03:38.774Z,81.60
2017-10-20T00:06:06.291Z,81.50
2017-10-20T00:08:34.550Z,81.50
2017-10-20T00:11:02.860Z,81.30
2017-10-20T00:13:30.354Z,81.20
2017-10-20T00:15:57.866Z,81.30
2017-10-20T00:18:25.358Z,81.00
2017-10-20T00:20:52.853Z,81.20
2017-10-20T00:23:20.370Z,81.20
2017-10-20T00:25:47.865Z,81.20
2017-10-20T00:28:15.391Z,81.60
2017-10-20T00:30:42.890Z,81.60
2017-10-20T00:33:10.406Z,81.50
2017-10-20T00:35:37.899Z,81.40
2017-10-20T00:38:05.430Z,81.50
2017-10-20T00:40:32.926Z,81.60
2017-10-20T00:43:00.434Z,81.50
2017-10-20T00:45:27.946Z,81.60
2017-10-20T00:47:56.201Z,81.70
2017-10-20T00:50:23.722Z,81.60
2017-10-20T00:52:51.223Z,81.60
2017-10-20T00:55:19.507Z,81.90
2017-10-20T00:57:47.777Z,81.70
2017-10-20T01:00:16.061Z,82.60
2017-10-20T01:02:44.318Z,81.70
2017-10-20T01:05:11.833Z,81.70
2017-10-20T01:07:39.327Z,81.60
2017-10-20T01:10:06.821Z,82.50
2017-10-20T01:12:34.347Z,81.60
2017-10-20T01:15:01.839Z,81.60
2017-10-20T01:17:29.355Z,81.50
2017-10-20T01:19:56.854Z,81.70
2017-10-20T01:22:24.370Z,81.80
2017-10-20T01:24:51.867Z,81.80
2017-10-20T01:27:19.390Z,81.90
2017-10-20T01:29:46.886Z,82.10
2017-10-20T01:32:14.381Z,82.30
2017-10-20T01:34:41.899Z,83.20
2017-10-20T01:37:09.394Z,82.60
2017-10-20T01:39:36.916Z,82.40
2017-10-20T01:42:04.419Z,82.30
2017-10-20T01:44:31.946Z,82.30
2017-10-20T01:46:59.438Z,82.40
2017-10-20T01:49:26.933Z,82.40
2017-10-20T01:51:55.218Z,82.60
2017-10-20T01:54:22.734Z,82.50
2017-10-20T01:56:50.259Z,82.20
2017-10-20T01:59:17.758Z,82.20
2017-10-20T02:01:45.275Z,82.10
2017-10-20T02:04:12.799Z,82.10
2017-10-20T02:06:40.314Z,82.10
2017-10-20T02:09:07.810Z,82.10
2017-10-20T02:11:35.326Z,82.20
2017-10-20T02:14:02.820Z,82.10
2017-10-20T02:16:31.110Z,82.00
2017-10-20T02:18:58.618Z,81.90
2017-10-20T02:21:26.130Z,81.90
2017-10-20T02:23:53.631Z,81.90
2017-10-20T02:26:21.147Z,81.80
2017-10-20T02:28:48.643Z,81.90
2017-10-20T02:31:16.927Z,81.70
2017-10-20T02:33:45.191Z,81.60
2017-10-20T02:36:12.711Z,81.50
2017-10-20T02:38:40.202Z,81.50
2017-10-20T02:41:07.714Z,81.40
2017-10-20T02:43:35.208Z,81.40
2017-10-20T02:46:02.722Z,81.40
2017-10-20T02:48:30.223Z,81.30
2017-10-20T02:50:57.750Z,81.30
2017-10-20T02:53:25.246Z,81.40
2017-10-20T02:55:52.763Z,81.70
2017-10-20T02:58:21.018Z,82.10
2017-10-20T03:00:48.539Z,82.10
2017-10-20T03:03:16.030Z,82.30
2017-10-20T03:05:43.551Z,82.30
2017-10-20T03:08:11.047Z,82.30
2017-10-20T03:10:38.567Z,82.00
2017-10-20T03:13:06.058Z,82.10
2017-10-20T03:15:33.569Z,82.10
2017-10-20T03:18:01.826Z,82.20
2017-10-20T03:20:29.341Z,82.20
2017-10-20T03:22:56.839Z,82.10
2017-10-20T03:25:24.358Z,82.20
2017-10-20T03:27:51.863Z,82.10
2017-10-20T03:30:19.379Z,82.30
2017-10-20T03:32:46.878Z,82.40
2017-10-20T03:35:14.394Z,82.50
2017-10-20T03:37:41.886Z,82.40
2017-10-20T03:40:09.398Z,82.50
2017-10-20T03:42:37.678Z,82.40
2017-10-20T03:45:05.958Z,82.40
2017-10-20T03:47:33.462Z,82.40
2017-10-20T03:50:01.755Z,82.00
2017-10-20T03:52:29.254Z,82.00
2017-10-20T03:54:56.776Z,81.90
2017-10-20T03:57:24.270Z,82.00
2017-10-20T03:59:51.782Z,81.90
2017-10-20T04:02:19.275Z,81.80
2017-10-20T04:04:46.794Z,81.80
2017-10-20T04:07:15.055Z,81.70
2017-10-20T04:09:43.334Z,82.30
2017-10-20T04:12:11.598Z,81.60
2017-10-20T04:14:39.113Z,81.60
2017-10-20T04:17:06.610Z,81.60
2017-10-20T04:19:34.129Z,81.50
2017-10-20T04:22:01.631Z,81.50
2017-10-20T04:24:29.151Z,81.70
2017-10-20T04:26:56.692Z,81.70
2017-10-20T04:29:24.206Z,81.90
2017-10-20T04:31:51.708Z,82.00
2017-10-20T04:34:19.225Z,82.00
2017-10-20T04:36:47.196Z,82.00
2017-10-20T04:39:14.717Z,82.10
2017-10-20T04:41:42.215Z,81.90
2017-10-20T04:44:09.730Z,81.90
2017-10-20T04:46:37.228Z,82.00
2017-10-20T04:49:04.747Z,81.80
2017-10-20T04:51:32.241Z,82.60
2017-10-20T04:53:59.759Z,82.10
2017-10-20T04:56:27.253Z,82.30
2017-10-20T04:58:54.767Z,82.40
2017-10-20T05:01:22.273Z,82.60
2017-10-20T05:03:49.786Z,82.70
2017-10-20T05:06:17.286Z,82.60
2017-10-20T05:08:46.426Z,82.80
2017-10-20T05:11:14.691Z,82.90
2017-10-20T05:13:42.978Z,83.50
2017-10-20T05:16:11.238Z,83.20
2017-10-20T05:18:38.759Z,83.20
2017-10-20T05:21:06.250Z,83.40
2017-10-20T05:23:33.770Z,83.50
2017-10-20T05:26:01.262Z,83.50
2017-10-20T05:28:28.773Z,83.60
2017-10-20T05:30:56.270Z,83.40
2017-10-20T05:33:23.786Z,83.30
2017-10-20T05:35:51.286Z,83.30
2017-10-20T05:38:18.810Z,83.10
2017-10-20T05:40:46.309Z,82.90
2017-10-20T05:43:13.830Z,83.00
2017-10-20T05:45:41.350Z,83.00
2017-10-20T05:48:09.635Z,83.00
2017-10-20T05:50:37.900Z,83.00
2017-10-20T05:53:06.187Z,83.10
2017-10-20T05:55:34.445Z,83.10
2017-10-20T05:58:01.958Z,82.90
2017-10-20T06:00:29.452Z,83.10
2017-10-20T06:02:56.956Z,82.90
2017-10-20T06:05:24.494Z,82.90
2017-10-20T06:07:52.000Z,82.90
2017-10-20T06:10:19.522Z,83.00
2017-10-20T06:12:47.015Z,82.80
2017-10-20T06:15:14.534Z,82.60
2017-10-20T06:17:42.039Z,82.50
2017-10-20T06:20:09.704Z,82.70
2017-10-20T06:22:37.202Z,82.70
2017-10-20T06:25:04.736Z,82.80
2017-10-20T06:27:32.238Z,83.10
2017-10-20T06:29:59.751Z,82.60
2017-10-20T06:32:27.245Z,82.80
2017-10-20T06:34:54.796Z,82.90
2017-10-20T06:37:22.294Z,83.10
2017-10-20T06:39:50.582Z,83.00
2017-10-20T06:42:18.841Z,82.90
2017-10-20T06:44:47.118Z,82.60
2017-10-20T06:47:15.475Z,82.60
2017-10-20T06:49:42.998Z,82.40
2017-10-20T06:52:10.510Z,82.50
2017-10-20T06:54:38.835Z,82.10
2017-10-20T06:57:06.334Z,82.10
2017-10-20T06:59:34.615Z,81.90
2017-10-20T07:02:03.275Z,81.80
2017-10-20T07:04:30.790Z,81.80
2017-10-20T07:06:58.281Z,82.00
2017-10-20T07:09:25.804Z,81.40
2017-10-20T07:11:53.307Z,81.20
2017-10-20T07:14:20.843Z,81.20
2017-10-20T07:16:48.338Z,81.40
2017-10-20T07:19:21.391Z,81.40
2017-10-20T07:21:48.887Z,81.30
2017-10-20T07:24:16.531Z,81.40
2017-10-20T07:26:44.794Z,81.80
2017-10-20T07:29:12.314Z,81.80
2017-10-20T07:31:39.810Z,81.90
2017-10-20T07:34:07.347Z,81.60
2017-10-20T07:36:34.847Z,81.40
2017-10-20T07:39:03.134Z,81.60
2017-10-20T07:41:30.635Z,81.60
2017-10-20T07:43:58.162Z,81.10
2017-10-20T07:46:25.670Z,80.50
2017-10-20T07:48:53.195Z,80.20
2017-10-20T07:51:20.686Z,79.80
2017-10-20T07:53:48.691Z,79.70
2017-10-20T07:56:16.198Z,79.00
2017-10-20T07:58:43.737Z,78.10
2017-10-20T08:01:11.241Z,77.60
2017-10-20T08:03:38.759Z,77.00
2017-10-20T08:06:06.291Z,76.80
2017-10-20T08:08:33.811Z,76.50
2017-10-20T08:11:01.310Z,76.50
2017-10-20T08:13:28.838Z,76.30
2017-10-20T08:15:57.099Z,76.80
2017-10-20T08:18:24.622Z,76.10
2017-10-20T08:20:52.122Z,75.00
2017-10-20T08:23:19.758Z,74.80
2017-10-20T08:25:47.251Z,73.30
2017-10-20T08:28:15.539Z,73.60
2017-10-20T08:30:43.794Z,73.10
2017-10-20T08:33:11.306Z,73.00
2017-10-20T08:35:38.800Z,73.20
2017-10-20T08:38:06.314Z,74.10
2017-10-20T08:40:33.805Z,73.30
2017-10-20T08:43:01.322Z,73.50
2017-10-20T08:45:28.823Z,73.50
2017-10-20T08:47:56.336Z,73.30
2017-10-20T08:50:23.838Z,73.60
2017-10-20T08:52:51.354Z,74.40
2017-10-20T08:55:18.854Z,73.90
2017-10-20T08:57:46.384Z,74.40
2017-10-20T09:00:13.902Z,74.70
2017-10-20T09:02:42.194Z,75.60
2017-10-20T09:05:10.457Z,75.60
2017-10-20T09:07:38.744Z,75.60
2017-10-20T09:10:07.006Z,75.50
2017-10-20T09:12:34.541Z,75.40
2017-10-20T09:15:02.446Z,75.70
2017-10-20T09:17:29.962Z,76.00
2017-10-20T09:19:58.218Z,76.10
2017-10-20T09:22:25.743Z,75.90
2017-10-20T09:24:53.234Z,76.30
2017-10-20T09:27:21.514Z,75.40
2017-10-20T09:29:49.783Z,74.70
2017-10-20T09:32:18.072Z,74.80
2017-10-20T09:34:46.330Z,75.00
2017-10-20T09:37:13.850Z,75.00
2017-10-20T09:39:41.342Z,74.30
2017-10-20T09:42:08.910Z,74.10
2017-10-20T09:44:36.406Z,73.60
2017-10-20T09:47:03.922Z,73.50
2017-10-20T09:49:31.426Z,73.50
2017-10-20T09:51:58.967Z,73.80
2017-10-20T09:54:26.474Z,73.60
2017-10-20T09:56:54.758Z,73.70
2017-10-20T09:59:22.258Z,73.70
2017-10-20T10:01:49.774Z,73.80
2017-10-20T10:04:17.266Z,74.00
2017-10-20T10:06:44.778Z,73.90
2017-10-20T10:09:13.038Z,73.20
2017-10-20T10:11:40.558Z,73.20
2017-10-20T10:14:08.062Z,72.60
2017-10-20T10:16:36.342Z,71.30
2017-10-20T10:19:03.846Z,71.30
2017-10-20T10:21:31.362Z,70.90
2017-10-20T10:23:58.856Z,70.90
2017-10-20T10:26:26.353Z,70.60
2017-10-20T10:28:53.871Z,71.50
2017-10-20T10:31:22.139Z,70.80
2017-10-20T10:33:50.421Z,69.40
2017-10-20T10:36:18.682Z,68.00
2017-10-20T10:38:46.197Z,68.00
2017-10-20T10:41:13.694Z,67.00
2017-10-20T10:43:41.214Z,66.80
2017-10-20T10:46:08.710Z,66.50
2017-10-20T10:48:37.738Z,64.90
2017-10-20T10:51:05.248Z,65.00
2017-10-20T10:53:33.534Z,63.20
2017-10-20T10:56:01.026Z,63.10
2017-10-20T10:58:28.547Z,62.70
2017-10-20T11:00:57.553Z,62.00
2017-10-20T11:03:25.839Z,62.50
2017-10-20T11:06:06.048Z,62.00
2017-10-20T11:08:45.453Z,62.00
2017-10-20T11:11:24.726Z,59.30
2017-10-20T11:13:52.242Z,58.80
2017-10-20T11:16:19.740Z,57.60
2017-10-20T11:18:47.263Z,57.10
2017-10-20T11:21:14.768Z,56.80
2017-10-20T11:23:42.291Z,55.90
2017-10-20T11:26:10.555Z,52.60
2017-10-20T11:28:38.846Z,52.60
2017-10-20T11:31:06.337Z,52.50
2017-10-20T11:33:33.865Z,50.80
2017-10-20T11:36:01.367Z,47.80
2017-10-20T11:38:28.884Z,46.20
2017-10-20T11:40:56.382Z,46.70
2017-10-20T11:43:23.903Z,43.60
2017-10-20T11:45:51.399Z,40.90
2017-10-20T11:48:18.918Z,40.60
2017-10-20T11:50:46.415Z,42.40
2017-10-20T11:53:13.942Z,44.40
2017-10-20T11:55:41.442Z,44.10
2017-10-20T11:58:08.957Z,44.60
2017-10-20T12:00:36.466Z,44.40
2017-10-20T12:03:03.991Z,45.80
2017-10-20T12:05:31.486Z,46.90
2017-10-20T12:07:59.003Z,48.50
2017-10-20T12:10:26.493Z,48.20
2017-10-20T12:12:54.011Z,49.10
2017-10-20T12:15:21.515Z,50.30
2017-10-20T12:17:49.035Z,51.60
2017-10-20T12:20:16.534Z,52.90
2017-10-20T12:22:44.047Z,53.60
2017-10-20T12:25:11.546Z,53.30
2017-10-20T12:27:39.066Z,53.60
2017-10-20T12:30:06.554Z,53.90
2017-10-20T12:32:34.063Z,52.90
2017-10-20T12:35:01.594Z,52.30
2017-10-20T12:37:32.022Z,50.90
2017-10-20T12:40:01.818Z,50.10
2017-10-20T12:42:29.334Z,50.00
2017-10-20T12:44:56.822Z,49.80
2017-10-20T12:47:24.334Z,49.60
2017-10-20T12:49:51.822Z,49.10
2017-10-20T12:52:19.330Z,47.30
2017-10-20T12:54:46.818Z,46.60
2017-10-20T12:57:15.094Z,44.60
2017-10-20T12:59:42.581Z,44.60
2017-10-20T13:02:10.866Z,43.80
2017-10-20T13:04:38.427Z,43.80
2017-10-20T13:07:06.707Z,44.40
2017-10-20T13:09:34.962Z,43.80
2017-10-20T13:12:02.478Z,43.80
2017-10-20T13:14:29.965Z,44.50
2017-10-20T13:16:58.243Z,44.00
2017-10-20T13:19:25.731Z,44.10
2017-10-20T13:21:53.246Z,43.60
2017-10-20T13:24:20.738Z,43.10
2017-10-20T13:26:48.250Z,43.50
2017-10-20T13:29:15.738Z,44.00
2017-10-20T13:31:43.250Z,43.80
2017-10-20T13:34:11.511Z,44.80
2017-10-20T13:36:39.031Z,44.70
2017-10-20T13:39:07.286Z,46.00
2017-10-20T13:41:35.844Z,46.00
2017-10-20T13:44:03.341Z,46.80
2017-10-20T13:46:31.919Z,47.10
2017-10-20T13:48:59.412Z,47.70
2017-10-20T13:51:26.922Z,47.50
2017-10-20T13:53:54.410Z,47.60
2017-10-20T13:56:22.695Z,48.20
2017-10-20T13:58:50.190Z,48.20
2017-10-20T14:01:17.702Z,48.20
2017-10-20T14:03:45.198Z,48.60
2017-10-20T14:06:13.478Z,49.80
2017-10-20T14:08:41.730Z,50.00
2017-10-20T14:11:09.246Z,50.00
2017-10-20T14:13:36.857Z,50.30
2017-10-20T14:16:04.365Z,50.70
2017-10-20T14:18:31.853Z,50.90
2017-10-20T14:20:59.380Z,51.00
2017-10-20T14:23:27.643Z,51.70
2017-10-20T14:25:55.922Z,51.30
2017-10-20T14:28:24.178Z,51.30
2017-10-20T14:30:51.686Z,51.20
2017-10-20T14:33:19.175Z,51.30
2017-10-20T14:35:46.687Z,51.50
2017-10-20T14:38:14.944Z,52.10
2017-10-20T14:40:42.461Z,51.90
2017-10-20T14:43:09.952Z,52.40
2017-10-20T14:45:37.443Z,52.00
2017-10-20T14:48:04.960Z,54.00
2017-10-20T14:50:32.468Z,55.30
2017-10-20T14:52:59.982Z,56.10
2017-10-20T14:55:27.473Z,56.80
2017-10-20T14:57:55.766Z,58.00
2017-10-20T15:00:23.254Z,57.90
2017-10-20T15:02:50.766Z,57.90
2017-10-20T15:05:19.023Z,58.60
2017-10-20T15:07:46.538Z,58.50
2017-10-20T15:10:14.030Z,58.90
2017-10-20T15:12:41.539Z,59.20
2017-10-20T15:15:09.027Z,59.60
2017-10-20T15:17:36.537Z,60.20
2017-10-20T15:20:04.799Z,61.40
2017-10-20T15:22:33.076Z,62.10
2017-10-20T15:25:01.330Z,62.50
2017-10-20T15:27:28.845Z,62.50
2017-10-20T15:29:56.334Z,63.00
2017-10-20T15:32:23.842Z,63.50
2017-10-20T15:34:51.334Z,64.00
2017-10-20T15:37:18.855Z,64.60
2017-10-20T15:39:47.110Z,65.70
2017-10-20T15:42:14.630Z,65.70
2017-10-20T15:44:42.118Z,66.30
2017-10-20T15:47:09.631Z,66.30
2017-10-20T15:49:37.134Z,66.70
2017-10-20T15:52:04.658Z,67.10
2017-10-20T15:54:32.146Z,67.40
2017-10-20T15:56:59.650Z,67.60
2017-10-20T15:59:27.137Z,68.10
2017-10-20T16:01:54.646Z,68.30
2017-10-20T16:04:22.903Z,69.20
2017-10-20T16:06:50.411Z,69.20
2017-10-20T16:09:17.902Z,69.50
2017-10-20T16:11:45.416Z,69.60
2017-10-20T16:14:12.907Z,70.00
2017-10-20T16:16:41.186Z,70.50
2017-10-20T16:19:10.187Z,70.60
2017-10-20T16:21:37.717Z,70.50
2017-10-20T16:24:05.210Z,70.90
2017-10-20T16:26:33.490Z,70.60
2017-10-20T16:29:01.748Z,71.30
2017-10-20T16:31:29.263Z,71.20
2017-10-20T16:33:56.758Z,71.50
2017-10-20T16:36:24.270Z,71.50
2017-10-20T16:38:51.768Z,71.60
2017-10-20T16:41:19.314Z,71.00
2017-10-20T16:43:46.802Z,72.00
2017-10-20T16:46:14.315Z,71.10
2017-10-20T16:48:41.810Z,70.90
2017-10-20T16:51:09.324Z,70.40
2017-10-20T16:53:36.815Z,69.90
2017-10-20T16:56:04.333Z,69.80
2017-10-20T16:58:32.581Z,69.50
2017-10-20T17:01:00.858Z,69.90
2017-10-20T17:03:28.346Z,69.60
2017-10-20T17:05:55.862Z,69.30
2017-10-20T17:08:23.351Z,69.40
2017-10-20T17:10:51.626Z,68.70
2017-10-20T17:13:19.882Z,69.10
2017-10-20T17:15:48.165Z,69.10
2017-10-20T17:18:15.658Z,69.20
2017-10-20T17:20:43.182Z,68.70
2017-10-20T17:23:10.674Z,68.30
2017-10-20T17:25:38.192Z,68.20
2017-10-20T17:28:06.456Z,68.10
2017-10-20T17:30:34.731Z,68.40
2017-10-20T17:33:03.730Z,67.00
2017-10-20T17:35:32.007Z,65.80
2017-10-20T17:38:00.267Z,63.00
2017-10-20T17:40:28.564Z,60.70
2017-10-20T17:42:56.818Z,58.70
2017-10-20T17:45:24.329Z,58.70
2017-10-20T17:47:51.823Z,58.50
2017-10-20T17:50:19.335Z,58.20
2017-10-20T17:52:46.826Z,57.70
2017-10-20T17:55:14.338Z,57.30
2017-10-20T17:57:41.830Z,57.40
2017-10-20T18:00:10.107Z,57.20
2017-10-20T18:02:38.362Z,57.60
2017-10-20T18:05:05.879Z,57.60
2017-10-20T18:07:33.366Z,58.20
2017-10-20T18:10:00.878Z,58.70
2017-10-20T18:12:29.136Z,58.50
2017-10-20T18:14:56.654Z,58.50
2017-10-20T18:17:24.142Z,58.90
2017-10-20T18:19:51.665Z,59.30
2017-10-20T18:22:19.158Z,59.70
2017-10-20T18:24:46.646Z,59.90
2017-10-20T18:27:14.176Z,60.90
2017-10-20T18:29:42.440Z,61.90
2017-10-20T18:32:09.963Z,61.70
2017-10-20T18:34:37.458Z,61.90
2017-10-20T18:37:04.986Z,62.00
2017-10-20T18:39:32.475Z,62.00
2017-10-20T18:42:00.001Z,61.90
2017-10-20T18:44:27.494Z,62.00
2017-10-20T18:46:55.022Z,61.70
2017-10-20T18:49:22.510Z,62.00
2017-10-20T18:51:50.019Z,61.80
2017-10-20T18:54:17.510Z,61.90
2017-10-20T18:56:45.022Z,61.70
2017-10-20T18:59:12.515Z,61.60
2017-10-20T19:01:40.028Z,61.50
2017-10-20T19:04:07.523Z,61.50
2017-10-20T19:06:35.029Z,61.40
2017-10-20T19:09:02.519Z,61.20
2017-10-20T19:11:30.031Z,61.40
2017-10-20T19:13:57.518Z,61.40
2017-10-20T19:16:25.045Z,61.50
2017-10-20T19:18:52.534Z,61.60
2017-10-20T19:21:20.810Z,61.70
2017-10-20T19:23:49.066Z,62.00
2017-10-20T19:26:16.579Z,61.90
2017-10-20T19:28:44.845Z,62.00
2017-10-20T19:31:13.125Z,62.10
2017-10-20T19:33:41.377Z,61.90
2017-10-20T19:36:08.886Z,61.90
2017-10-20T19:38:36.382Z,62.40
2017-10-20T19:41:03.901Z,62.20
2017-10-20T19:43:31.397Z,62.10
2017-10-20T19:45:58.910Z,62.40
2017-10-20T19:48:26.403Z,62.70
2017-10-20T19:50:53.914Z,62.90
2017-10-20T19:53:22.170Z,63.30
2017-10-20T19:55:49.683Z,63.20
2017-10-20T19:58:17.170Z,63.50
2017-10-20T20:00:44.682Z,63.80
2017-10-20T20:03:12.174Z,63.80
2017-10-20T20:05:39.682Z,64.00
2017-10-20T20:08:07.933Z,64.60
2017-10-20T20:10:35.442Z,64.60
2017-10-20T20:13:02.930Z,65.00
2017-10-20T20:15:30.443Z,65.60
2017-10-20T20:17:58.698Z,66.50
2017-10-20T20:20:26.974Z,66.80
2017-10-20T20:22:54.466Z,66.90
2017-10-20T20:25:21.973Z,67.00
2017-10-20T20:27:49.458Z,67.40
2017-10-20T20:30:16.970Z,67.60
2017-10-20T20:32:44.454Z,67.90
2017-10-20T20:35:11.959Z,68.00
2017-10-20T20:37:40.210Z,68.40
2017-10-20T20:40:07.723Z,68.40
2017-10-20T20:42:35.210Z,68.20
2017-10-20T20:45:02.722Z,68.40
2017-10-20T20:47:30.219Z,68.70
2017-10-20T20:49:57.730Z,69.20
2017-10-20T20:52:25.219Z,69.10
2017-10-20T20:54:52.710Z,68.90
2017-10-20T20:57:20.986Z,68.40
2017-10-20T20:59:48.479Z,68.30
2017-10-20T21:02:15.991Z,68.10
2017-10-20T21:04:43.487Z,68.00
2017-10-20T21:07:11.000Z,68.10
2017-10-20T21:09:38.490Z,67.90
2017-10-20T21:12:06.771Z,68.30
2017-10-20T21:14:35.026Z,68.20
2017-10-20T21:17:02.540Z,68.00
2017-10-20T21:19:30.030Z,68.20
2017-10-20T21:21:57.539Z,68.00
2017-10-20T21:24:25.794Z,68.00
2017-10-20T21:26:54.074Z,67.80
2017-10-20T21:29:22.330Z,67.80
2017-10-20T21:31:49.838Z,67.40
2017-10-20T21:34:17.330Z,67.20
2017-10-20T21:36:44.837Z,67.40
2017-10-20T21:39:13.105Z,67.50
2017-10-20T21:41:41.387Z,67.40
2017-10-20T21:44:09.642Z,67.30
2017-10-20T21:46:37.152Z,67.30
2017-10-20T21:49:04.646Z,67.40
2017-10-20T21:51:32.162Z,67.80
2017-10-20T21:53:59.661Z,68.00
2017-10-20T21:56:27.197Z,68.10
2017-10-20T21:58:54.687Z,68.30
2017-10-20T22:01:22.200Z,68.40
2017-10-20T22:03:49.690Z,68.50
2017-10-20T22:06:17.202Z,68.60
2017-10-20T22:08:45.455Z,69.00
2017-10-20T22:11:13.734Z,69.10
2017-10-20T22:13:41.222Z,69.10
2017-10-20T22:16:08.735Z,69.10
2017-10-20T22:18:36.226Z,69.30
2017-10-20T22:21:04.506Z,69.50
2017-10-20T22:23:31.995Z,69.50
2017-10-20T22:25:59.507Z,69.70
2017-10-20T22:28:27.762Z,69.80
2017-10-20T22:30:55.278Z,69.70
2017-10-20T22:33:22.770Z,69.70
2017-10-20T22:35:50.274Z,69.90
2017-10-20T22:38:17.766Z,69.90
2017-10-20T22:40:45.278Z,69.80
2017-10-20T22:43:13.540Z,69.80
2017-10-20T22:45:41.050Z,69.70
2017-10-20T22:48:08.543Z,69.70
2017-10-20T22:50:36.055Z,69.70
2017-10-20T22:53:03.550Z,69.70
2017-10-20T22:55:31.075Z,69.80
2017-10-20T22:57:58.574Z,69.80
2017-10-20T23:00:26.082Z,69.60
2017-10-20T23:02:53.575Z,69.70
2017-10-20T23:05:21.085Z,69.70
2017-10-20T23:07:49.343Z,69.80
2017-10-20T23:10:17.622Z,70.50
2017-10-20T23:12:45.878Z,70.10
2017-10-20T23:15:13.392Z,70.00
2017-10-20T23:17:40.881Z,70.10
2017-10-20T23:20:08.390Z,70.00
2017-10-20T23:22:36.647Z,70.00
2017-10-20T23:25:04.167Z,70.00
2017-10-20T23:27:31.663Z,70.20
2017-10-20T23:29:59.953Z,70.40
2017-10-20T23:32:28.211Z,70.40
2017-10-20T23:34:55.721Z,70.40
2017-10-20T23:37:23.210Z,70.80
2017-10-20T23:39:50.702Z,70.90
2017-10-20T23:42:18.973Z,71.20
2017-10-20T23:44:47.234Z,71.10
2017-10-20T23:47:14.751Z,71.10
2017-10-20T23:49:42.242Z,71.10
2017-10-20T23:52:09.755Z,70.90
2017-10-20T23:54:37.242Z,71.00
2017-10-20T23:57:05.518Z,71.10
2017-10-20T23:59:33.770Z,71.20
